sensor_id;sensor_type;location;lat;lon;timestamp;P1;durP1;ratioP1;P2;durP2;ratioP2
18875;SDS011;9570;50.854;13.778;2023-05-07T00:01:15;9.50;;;8.50;;
18875;SDS011;9570;50.854;13.778;2023-05-07T00:03:41;11.17;;;8.57;;
18875;SDS011;9570;50.854;13.778;2023-05-07T00:06:06;11.33;;;9.17;;
18875;SDS011;9570;50.854;13.778;2023-05-07T00:08:32;11.43;;;9.60;;
18875;SDS011;9570;50.854;13.778;2023-05-07T00:10:57;12.37;;;10.43;;
18875;SDS011;9570;50.854;13.778;2023-05-07T00:13:23;12.40;;;10.47;;
18875;SDS011;9570;50.854;13.778;2023-05-07T00:15:48;14.37;;;10.47;;
18875;SDS011;9570;50.854;13.778;2023-05-07T00:18:14;16.00;;;11.13;;
18875;SDS011;9570;50.854;13.778;2023-05-07T00:20:39;16.83;;;11.30;;
18875;SDS011;9570;50.854;13.778;2023-05-07T00:23:05;16.07;;;12.30;;
18875;SDS011;9570;50.854;13.778;2023-05-07T00:25:30;16.87;;;11.47;;
18875;SDS011;9570;50.854;13.778;2023-05-07T00:27:55;14.50;;;11.37;;
18875;SDS011;9570;50.854;13.778;2023-05-07T00:30:22;15.83;;;11.33;;
18875;SDS011;9570;50.854;13.778;2023-05-07T00:32:48;16.97;;;12.10;;
18875;SDS011;9570;50.854;13.778;2023-05-07T00:35:13;18.10;;;12.07;;
18875;SDS011;9570;50.854;13.778;2023-05-07T00:37:39;17.70;;;12.03;;
18875;SDS011;9570;50.854;13.778;2023-05-07T00:40:05;16.97;;;12.40;;
18875;SDS011;9570;50.854;13.778;2023-05-07T00:42:32;18.17;;;12.77;;
18875;SDS011;9570;50.854;13.778;2023-05-07T00:44:58;17.87;;;13.27;;
18875;SDS011;9570;50.854;13.778;2023-05-07T00:47:24;17.47;;;12.93;;
18875;SDS011;9570;50.854;13.778;2023-05-07T00:49:50;19.23;;;12.97;;
18875;SDS011;9570;50.854;13.778;2023-05-07T00:52:16;20.07;;;13.27;;
18875;SDS011;9570;50.854;13.778;2023-05-07T00:54:44;16.27;;;12.53;;
18875;SDS011;9570;50.854;13.778;2023-05-07T00:57:10;18.00;;;13.03;;
18875;SDS011;9570;50.854;13.778;2023-05-07T00:59:38;20.17;;;13.50;;
18875;SDS011;9570;50.854;13.778;2023-05-07T01:02:05;19.80;;;13.43;;
18875;SDS011;9570;50.854;13.778;2023-05-07T01:04:31;19.63;;;13.83;;
18875;SDS011;9570;50.854;13.778;2023-05-07T01:06:57;18.73;;;14.03;;
18875;SDS011;9570;50.854;13.778;2023-05-07T01:09:24;21.20;;;13.73;;
18875;SDS011;9570;50.854;13.778;2023-05-07T01:11:50;18.63;;;14.00;;
18875;SDS011;9570;50.854;13.778;2023-05-07T01:14:17;19.30;;;13.97;;
18875;SDS011;9570;50.854;13.778;2023-05-07T01:16:43;18.30;;;13.50;;
18875;SDS011;9570;50.854;13.778;2023-05-07T01:19:09;20.80;;;15.47;;
18875;SDS011;9570;50.854;13.778;2023-05-07T01:21:36;20.00;;;14.23;;
18875;SDS011;9570;50.854;13.778;2023-05-07T01:24:03;22.93;;;15.27;;
18875;SDS011;9570;50.854;13.778;2023-05-07T01:26:29;20.73;;;15.00;;
18875;SDS011;9570;50.854;13.778;2023-05-07T01:28:55;19.57;;;14.10;;
18875;SDS011;9570;50.854;13.778;2023-05-07T01:31:20;19.17;;;14.40;;
18875;SDS011;9570;50.854;13.778;2023-05-07T01:33:49;18.63;;;14.10;;
18875;SDS011;9570;50.854;13.778;2023-05-07T01:36:15;20.07;;;13.90;;
18875;SDS011;9570;50.854;13.778;2023-05-07T01:38:43;18.27;;;13.43;;
18875;SDS011;9570;50.854;13.778;2023-05-07T01:41:09;19.27;;;14.00;;
18875;SDS011;9570;50.854;13.778;2023-05-07T01:43:35;18.43;;;13.23;;
18875;SDS011;9570;50.854;13.778;2023-05-07T01:46:01;17.67;;;12.80;;
18875;SDS011;9570;50.854;13.778;2023-05-07T01:48:27;15.50;;;11.77;;
18875;SDS011;9570;50.854;13.778;2023-05-07T01:50:53;18.00;;;12.73;;
18875;SDS011;9570;50.854;13.778;2023-05-07T01:53:20;17.33;;;12.97;;
18875;SDS011;9570;50.854;13.778;2023-05-07T01:55:45;16.40;;;11.87;;
18875;SDS011;9570;50.854;13.778;2023-05-07T01:58:11;18.63;;;13.03;;
18875;SDS011;9570;50.854;13.778;2023-05-07T02:00:36;19.00;;;12.87;;
18875;SDS011;9570;50.854;13.778;2023-05-07T02:03:02;18.10;;;12.47;;
18875;SDS011;9570;50.854;13.778;2023-05-07T02:05:27;17.30;;;12.43;;
18875;SDS011;9570;50.854;13.778;2023-05-07T02:07:53;15.40;;;11.67;;
18875;SDS011;9570;50.854;13.778;2023-05-07T02:10:18;15.70;;;11.47;;
18875;SDS011;9570;50.854;13.778;2023-05-07T02:12:44;14.27;;;11.10;;
18875;SDS011;9570;50.854;13.778;2023-05-07T02:15:09;13.87;;;10.90;;
18875;SDS011;9570;50.854;13.778;2023-05-07T02:17:39;14.57;;;11.33;;
18875;SDS011;9570;50.854;13.778;2023-05-07T02:20:22;14.13;;;10.97;;
18875;SDS011;9570;50.854;13.778;2023-05-07T02:22:48;13.90;;;11.60;;
18875;SDS011;9570;50.854;13.778;2023-05-07T02:25:13;13.90;;;11.40;;
18875;SDS011;9570;50.854;13.778;2023-05-07T02:27:39;14.43;;;11.33;;
18875;SDS011;9570;50.854;13.778;2023-05-07T02:30:04;16.47;;;11.80;;
18875;SDS011;9570;50.854;13.778;2023-05-07T02:32:30;16.63;;;12.37;;
18875;SDS011;9570;50.854;13.778;2023-05-07T02:34:56;16.00;;;12.37;;
18875;SDS011;9570;50.854;13.778;2023-05-07T02:37:21;16.77;;;12.87;;
18875;SDS011;9570;50.854;13.778;2023-05-07T02:39:47;17.40;;;12.73;;
18875;SDS011;9570;50.854;13.778;2023-05-07T02:42:12;17.17;;;11.90;;
18875;SDS011;9570;50.854;13.778;2023-05-07T02:44:38;16.90;;;12.50;;
18875;SDS011;9570;50.854;13.778;2023-05-07T02:47:03;16.87;;;13.37;;
18875;SDS011;9570;50.854;13.778;2023-05-07T02:49:29;18.33;;;13.37;;
18875;SDS011;9570;50.854;13.778;2023-05-07T02:51:54;16.97;;;13.03;;
18875;SDS011;9570;50.854;13.778;2023-05-07T02:54:20;18.20;;;13.70;;
18875;SDS011;9570;50.854;13.778;2023-05-07T02:56:46;20.77;;;13.90;;
18875;SDS011;9570;50.854;13.778;2023-05-07T02:59:11;20.53;;;14.40;;
18875;SDS011;9570;50.854;13.778;2023-05-07T03:01:37;19.43;;;14.13;;
18875;SDS011;9570;50.854;13.778;2023-05-07T03:04:02;18.43;;;14.17;;
18875;SDS011;9570;50.854;13.778;2023-05-07T03:06:28;17.80;;;14.03;;
18875;SDS011;9570;50.854;13.778;2023-05-07T03:08:53;19.07;;;14.70;;
18875;SDS011;9570;50.854;13.778;2023-05-07T03:11:19;18.63;;;14.30;;
18875;SDS011;9570;50.854;13.778;2023-05-07T03:13:44;21.17;;;14.90;;
18875;SDS011;9570;50.854;13.778;2023-05-07T03:16:10;19.90;;;14.77;;
18875;SDS011;9570;50.854;13.778;2023-05-07T03:18:35;20.87;;;14.50;;
18875;SDS011;9570;50.854;13.778;2023-05-07T03:21:01;21.87;;;15.47;;
18875;SDS011;9570;50.854;13.778;2023-05-07T03:23:26;23.10;;;15.80;;
18875;SDS011;9570;50.854;13.778;2023-05-07T03:25:52;19.27;;;15.33;;
18875;SDS011;9570;50.854;13.778;2023-05-07T03:28:17;20.40;;;14.53;;
18875;SDS011;9570;50.854;13.778;2023-05-07T03:30:42;19.73;;;14.80;;
18875;SDS011;9570;50.854;13.778;2023-05-07T03:33:08;19.27;;;14.50;;
18875;SDS011;9570;50.854;13.778;2023-05-07T03:35:33;18.57;;;14.23;;
18875;SDS011;9570;50.854;13.778;2023-05-07T03:37:59;19.80;;;15.43;;
18875;SDS011;9570;50.854;13.778;2023-05-07T03:40:24;18.90;;;15.23;;
18875;SDS011;9570;50.854;13.778;2023-05-07T03:42:50;18.10;;;15.27;;
18875;SDS011;9570;50.854;13.778;2023-05-07T03:45:16;18.97;;;13.73;;
18875;SDS011;9570;50.854;13.778;2023-05-07T03:47:41;20.03;;;14.67;;
18875;SDS011;9570;50.854;13.778;2023-05-07T03:50:07;19.23;;;14.10;;
18875;SDS011;9570;50.854;13.778;2023-05-07T03:52:32;18.13;;;13.50;;
18875;SDS011;9570;50.854;13.778;2023-05-07T03:54:58;18.63;;;13.27;;
18875;SDS011;9570;50.854;13.778;2023-05-07T03:57:23;16.93;;;13.20;;
18875;SDS011;9570;50.854;13.778;2023-05-07T03:59:49;16.07;;;13.00;;
18875;SDS011;9570;50.854;13.778;2023-05-07T04:02:15;16.00;;;12.83;;
18875;SDS011;9570;50.854;13.778;2023-05-07T04:04:40;16.27;;;12.43;;
18875;SDS011;9570;50.854;13.778;2023-05-07T04:07:06;16.23;;;12.50;;
18875;SDS011;9570;50.854;13.778;2023-05-07T04:09:32;15.83;;;12.40;;
18875;SDS011;9570;50.854;13.778;2023-05-07T04:11:57;17.33;;;12.17;;
18875;SDS011;9570;50.854;13.778;2023-05-07T04:14:23;16.13;;;12.10;;
18875;SDS011;9570;50.854;13.778;2023-05-07T04:16:48;17.07;;;11.57;;
18875;SDS011;9570;50.854;13.778;2023-05-07T04:19:14;14.50;;;11.70;;
18875;SDS011;9570;50.854;13.778;2023-05-07T04:21:39;15.77;;;11.80;;
18875;SDS011;9570;50.854;13.778;2023-05-07T04:24:05;16.23;;;11.87;;
18875;SDS011;9570;50.854;13.778;2023-05-07T04:26:30;13.47;;;10.93;;
18875;SDS011;9570;50.854;13.778;2023-05-07T04:28:56;14.00;;;11.07;;
18875;SDS011;9570;50.854;13.778;2023-05-07T04:31:24;16.60;;;12.20;;
18875;SDS011;9570;50.854;13.778;2023-05-07T04:33:49;12.93;;;10.37;;
18875;SDS011;9570;50.854;13.778;2023-05-07T04:36:16;13.90;;;10.60;;
18875;SDS011;9570;50.854;13.778;2023-05-07T04:38:42;14.10;;;10.70;;
18875;SDS011;9570;50.854;13.778;2023-05-07T04:41:08;13.90;;;10.37;;
18875;SDS011;9570;50.854;13.778;2023-05-07T04:43:34;12.63;;;9.77;;
18875;SDS011;9570;50.854;13.778;2023-05-07T04:46:00;12.57;;;9.77;;
18875;SDS011;9570;50.854;13.778;2023-05-07T04:48:25;11.37;;;8.97;;
18875;SDS011;9570;50.854;13.778;2023-05-07T04:50:51;13.50;;;9.57;;
18875;SDS011;9570;50.854;13.778;2023-05-07T04:53:17;11.23;;;8.97;;
18875;SDS011;9570;50.854;13.778;2023-05-07T04:55:43;12.10;;;9.10;;
18875;SDS011;9570;50.854;13.778;2023-05-07T04:58:10;11.20;;;8.63;;
18875;SDS011;9570;50.854;13.778;2023-05-07T05:00:36;9.90;;;8.00;;
18875;SDS011;9570;50.854;13.778;2023-05-07T05:03:03;9.27;;;7.77;;
18875;SDS011;9570;50.854;13.778;2023-05-07T05:05:29;9.63;;;7.93;;
18875;SDS011;9570;50.854;13.778;2023-05-07T05:07:55;9.87;;;8.77;;
18875;SDS011;9570;50.854;13.778;2023-05-07T05:10:21;8.80;;;7.40;;
18875;SDS011;9570;50.854;13.778;2023-05-07T05:12:47;9.53;;;8.13;;
18875;SDS011;9570;50.854;13.778;2023-05-07T05:15:12;8.83;;;7.23;;
18875;SDS011;9570;50.854;13.778;2023-05-07T05:17:38;9.00;;;7.23;;
18875;SDS011;9570;50.854;13.778;2023-05-07T05:20:04;10.27;;;8.20;;
18875;SDS011;9570;50.854;13.778;2023-05-07T05:22:30;9.03;;;7.90;;
18875;SDS011;9570;50.854;13.778;2023-05-07T05:24:56;9.70;;;8.20;;
18875;SDS011;9570;50.854;13.778;2023-05-07T05:27:22;10.07;;;7.93;;
18875;SDS011;9570;50.854;13.778;2023-05-07T05:29:47;10.50;;;8.20;;
18875;SDS011;9570;50.854;13.778;2023-05-07T05:32:13;11.40;;;8.60;;
18875;SDS011;9570;50.854;13.778;2023-05-07T05:34:38;10.90;;;8.70;;
18875;SDS011;9570;50.854;13.778;2023-05-07T05:37:04;11.57;;;8.83;;
18875;SDS011;9570;50.854;13.778;2023-05-07T05:39:29;9.83;;;8.23;;
18875;SDS011;9570;50.854;13.778;2023-05-07T05:41:55;11.00;;;8.33;;
18875;SDS011;9570;50.854;13.778;2023-05-07T05:44:21;9.80;;;7.37;;
18875;SDS011;9570;50.854;13.778;2023-05-07T05:46:46;10.40;;;8.37;;
18875;SDS011;9570;50.854;13.778;2023-05-07T05:49:12;10.10;;;8.07;;
18875;SDS011;9570;50.854;13.778;2023-05-07T05:51:37;10.23;;;8.00;;
18875;SDS011;9570;50.854;13.778;2023-05-07T05:54:03;8.93;;;7.07;;
18875;SDS011;9570;50.854;13.778;2023-05-07T05:56:29;8.67;;;6.77;;
18875;SDS011;9570;50.854;13.778;2023-05-07T05:58:55;10.57;;;7.63;;
18875;SDS011;9570;50.854;13.778;2023-05-07T06:01:20;10.37;;;7.53;;
18875;SDS011;9570;50.854;13.778;2023-05-07T06:03:46;8.87;;;7.23;;
18875;SDS011;9570;50.854;13.778;2023-05-07T06:06:11;9.00;;;7.20;;
18875;SDS011;9570;50.854;13.778;2023-05-07T06:08:36;8.33;;;6.37;;
18875;SDS011;9570;50.854;13.778;2023-05-07T06:11:02;7.53;;;6.37;;
18875;SDS011;9570;50.854;13.778;2023-05-07T06:13:28;8.30;;;7.00;;
18875;SDS011;9570;50.854;13.778;2023-05-07T06:15:53;8.07;;;6.87;;
18875;SDS011;9570;50.854;13.778;2023-05-07T06:18:19;9.83;;;6.97;;
18875;SDS011;9570;50.854;13.778;2023-05-07T06:20:44;7.70;;;6.30;;
18875;SDS011;9570;50.854;13.778;2023-05-07T06:23:10;7.93;;;6.50;;
18875;SDS011;9570;50.854;13.778;2023-05-07T06:25:35;8.23;;;6.77;;
18875;SDS011;9570;50.854;13.778;2023-05-07T06:28:00;8.30;;;6.80;;
18875;SDS011;9570;50.854;13.778;2023-05-07T06:30:26;8.50;;;6.43;;
18875;SDS011;9570;50.854;13.778;2023-05-07T06:32:51;11.50;;;6.97;;
18875;SDS011;9570;50.854;13.778;2023-05-07T06:35:17;9.97;;;7.30;;
18875;SDS011;9570;50.854;13.778;2023-05-07T06:37:42;7.67;;;6.27;;
18875;SDS011;9570;50.854;13.778;2023-05-07T06:40:08;8.63;;;6.20;;
18875;SDS011;9570;50.854;13.778;2023-05-07T06:42:35;9.20;;;6.53;;
18875;SDS011;9570;50.854;13.778;2023-05-07T06:45:01;8.37;;;6.60;;
18875;SDS011;9570;50.854;13.778;2023-05-07T06:47:27;8.90;;;6.50;;
18875;SDS011;9570;50.854;13.778;2023-05-07T06:49:53;10.53;;;6.60;;
18875;SDS011;9570;50.854;13.778;2023-05-07T06:52:18;9.73;;;6.93;;
18875;SDS011;9570;50.854;13.778;2023-05-07T06:54:44;7.93;;;6.43;;
18875;SDS011;9570;50.854;13.778;2023-05-07T06:57:09;8.83;;;6.43;;
18875;SDS011;9570;50.854;13.778;2023-05-07T06:59:35;7.27;;;6.40;;
18875;SDS011;9570;50.854;13.778;2023-05-07T07:02:00;7.37;;;6.07;;
18875;SDS011;9570;50.854;13.778;2023-05-07T07:04:26;8.23;;;6.30;;
18875;SDS011;9570;50.854;13.778;2023-05-07T07:06:52;7.10;;;5.53;;
18875;SDS011;9570;50.854;13.778;2023-05-07T07:09:18;7.03;;;6.00;;
18875;SDS011;9570;50.854;13.778;2023-05-07T07:11:43;7.23;;;5.93;;
18875;SDS011;9570;50.854;13.778;2023-05-07T07:14:09;6.43;;;5.80;;
18875;SDS011;9570;50.854;13.778;2023-05-07T07:16:34;6.20;;;5.60;;
18875;SDS011;9570;50.854;13.778;2023-05-07T07:19:00;5.90;;;5.30;;
18875;SDS011;9570;50.854;13.778;2023-05-07T07:21:25;5.53;;;4.90;;
18875;SDS011;9570;50.854;13.778;2023-05-07T07:23:51;6.70;;;5.53;;
18875;SDS011;9570;50.854;13.778;2023-05-07T07:26:17;5.47;;;4.63;;
18875;SDS011;9570;50.854;13.778;2023-05-07T07:28:43;7.17;;;4.80;;
18875;SDS011;9570;50.854;13.778;2023-05-07T07:31:09;5.60;;;4.73;;
18875;SDS011;9570;50.854;13.778;2023-05-07T07:33:35;6.33;;;5.07;;
18875;SDS011;9570;50.854;13.778;2023-05-07T07:36:00;5.10;;;4.60;;
18875;SDS011;9570;50.854;13.778;2023-05-07T07:38:26;7.60;;;4.87;;
18875;SDS011;9570;50.854;13.778;2023-05-07T07:40:51;4.70;;;4.20;;
18875;SDS011;9570;50.854;13.778;2023-05-07T07:43:17;5.13;;;4.63;;
18875;SDS011;9570;50.854;13.778;2023-05-07T07:45:42;5.20;;;4.70;;
18875;SDS011;9570;50.854;13.778;2023-05-07T07:48:08;4.93;;;4.43;;
18875;SDS011;9570;50.854;13.778;2023-05-07T07:50:34;5.13;;;4.17;;
18875;SDS011;9570;50.854;13.778;2023-05-07T07:52:59;4.83;;;4.33;;
18875;SDS011;9570;50.854;13.778;2023-05-07T07:55:25;5.03;;;4.30;;
18875;SDS011;9570;50.854;13.778;2023-05-07T07:57:51;4.77;;;4.17;;
18875;SDS011;9570;50.854;13.778;2023-05-07T08:00:17;5.37;;;4.60;;
18875;SDS011;9570;50.854;13.778;2023-05-07T08:02:43;5.30;;;4.30;;
18875;SDS011;9570;50.854;13.778;2023-05-07T08:05:08;5.20;;;4.70;;
18875;SDS011;9570;50.854;13.778;2023-05-07T08:07:34;6.00;;;4.50;;
18875;SDS011;9570;50.854;13.778;2023-05-07T08:09:59;5.93;;;4.80;;
18875;SDS011;9570;50.854;13.778;2023-05-07T08:12:25;5.57;;;4.63;;
18875;SDS011;9570;50.854;13.778;2023-05-07T08:14:50;5.93;;;5.13;;
18875;SDS011;9570;50.854;13.778;2023-05-07T08:17:16;7.40;;;5.37;;
18875;SDS011;9570;50.854;13.778;2023-05-07T08:19:42;6.83;;;5.40;;
18875;SDS011;9570;50.854;13.778;2023-05-07T08:22:08;6.53;;;5.43;;
18875;SDS011;9570;50.854;13.778;2023-05-07T08:24:35;6.07;;;5.23;;
18875;SDS011;9570;50.854;13.778;2023-05-07T08:27:01;6.20;;;5.47;;
18875;SDS011;9570;50.854;13.778;2023-05-07T08:29:26;6.67;;;5.53;;
18875;SDS011;9570;50.854;13.778;2023-05-07T08:31:52;5.80;;;5.20;;
18875;SDS011;9570;50.854;13.778;2023-05-07T08:34:17;8.03;;;4.77;;
18875;SDS011;9570;50.854;13.778;2023-05-07T08:36:43;5.73;;;5.03;;
18875;SDS011;9570;50.854;13.778;2023-05-07T08:39:09;5.10;;;4.60;;
18875;SDS011;9570;50.854;13.778;2023-05-07T08:41:34;5.63;;;5.03;;
18875;SDS011;9570;50.854;13.778;2023-05-07T08:44:00;5.17;;;4.67;;
18875;SDS011;9570;50.854;13.778;2023-05-07T08:46:28;6.63;;;5.10;;
18875;SDS011;9570;50.854;13.778;2023-05-07T08:48:56;7.00;;;4.90;;
18875;SDS011;9570;50.854;13.778;2023-05-07T08:51:22;5.23;;;4.67;;
18875;SDS011;9570;50.854;13.778;2023-05-07T08:53:48;5.37;;;4.87;;
18875;SDS011;9570;50.854;13.778;2023-05-07T08:56:14;5.80;;;4.70;;
18875;SDS011;9570;50.854;13.778;2023-05-07T08:58:41;7.30;;;4.53;;
18875;SDS011;9570;50.854;13.778;2023-05-07T09:01:08;5.20;;;4.70;;
18875;SDS011;9570;50.854;13.778;2023-05-07T09:03:36;5.77;;;4.80;;
18875;SDS011;9570;50.854;13.778;2023-05-07T09:06:02;7.10;;;5.47;;
18875;SDS011;9570;50.854;13.778;2023-05-07T09:08:28;5.97;;;4.60;;
18875;SDS011;9570;50.854;13.778;2023-05-07T09:10:54;5.17;;;4.50;;
18875;SDS011;9570;50.854;13.778;2023-05-07T09:13:20;5.20;;;4.50;;
18875;SDS011;9570;50.854;13.778;2023-05-07T09:15:45;5.57;;;4.33;;
18875;SDS011;9570;50.854;13.778;2023-05-07T09:18:14;4.90;;;4.40;;
18875;SDS011;9570;50.854;13.778;2023-05-07T09:20:40;4.00;;;3.60;;
18875;SDS011;9570;50.854;13.778;2023-05-07T09:23:06;4.70;;;4.20;;
18875;SDS011;9570;50.854;13.778;2023-05-07T09:25:33;4.50;;;4.10;;
18875;SDS011;9570;50.854;13.778;2023-05-07T09:27:59;4.13;;;3.60;;
18875;SDS011;9570;50.854;13.778;2023-05-07T09:30:29;4.10;;;3.70;;
18875;SDS011;9570;50.854;13.778;2023-05-07T09:32:59;4.50;;;4.10;;
18875;SDS011;9570;50.854;13.778;2023-05-07T09:35:25;4.43;;;4.03;;
18875;SDS011;9570;50.854;13.778;2023-05-07T09:37:55;5.40;;;4.10;;
18875;SDS011;9570;50.854;13.778;2023-05-07T09:40:22;4.73;;;4.07;;
18875;SDS011;9570;50.854;13.778;2023-05-07T09:42:52;4.30;;;3.90;;
18875;SDS011;9570;50.854;13.778;2023-05-07T09:45:21;4.80;;;4.30;;
18875;SDS011;9570;50.854;13.778;2023-05-07T09:47:53;4.40;;;4.00;;
18875;SDS011;9570;50.854;13.778;2023-05-07T09:50:29;5.00;;;4.50;;
18875;SDS011;9570;50.854;13.778;2023-05-07T09:52:57;5.20;;;4.70;;
18875;SDS011;9570;50.854;13.778;2023-05-07T09:55:23;5.53;;;5.03;;
18875;SDS011;9570;50.854;13.778;2023-05-07T09:57:52;5.67;;;5.10;;
18875;SDS011;9570;50.854;13.778;2023-05-07T10:00:18;5.90;;;5.03;;
18875;SDS011;9570;50.854;13.778;2023-05-07T10:02:45;5.97;;;5.37;;
18875;SDS011;9570;50.854;13.778;2023-05-07T10:05:17;5.37;;;4.87;;
18875;SDS011;9570;50.854;13.778;2023-05-07T10:07:45;5.87;;;5.07;;
18875;SDS011;9570;50.854;13.778;2023-05-07T10:10:11;5.50;;;4.90;;
18875;SDS011;9570;50.854;13.778;2023-05-07T10:12:37;6.30;;;4.60;;
18875;SDS011;9570;50.854;13.778;2023-05-07T10:15:05;6.57;;;5.30;;
18875;SDS011;9570;50.854;13.778;2023-05-07T10:17:33;5.53;;;4.90;;
18875;SDS011;9570;50.854;13.778;2023-05-07T10:20:03;5.37;;;4.87;;
18875;SDS011;9570;50.854;13.778;2023-05-07T10:22:38;5.50;;;4.73;;
18875;SDS011;9570;50.854;13.778;2023-05-07T10:25:13;6.13;;;5.20;;
18875;SDS011;9570;50.854;13.778;2023-05-07T10:27:43;5.17;;;4.67;;
18875;SDS011;9570;50.854;13.778;2023-05-07T10:30:26;5.30;;;4.80;;
18875;SDS011;9570;50.854;13.778;2023-05-07T10:33:05;4.80;;;4.33;;
18875;SDS011;9570;50.854;13.778;2023-05-07T10:35:40;5.07;;;4.43;;
18875;SDS011;9570;50.854;13.778;2023-05-07T10:38:07;4.50;;;4.10;;
18875;SDS011;9570;50.854;13.778;2023-05-07T10:40:33;7.07;;;5.00;;
18875;SDS011;9570;50.854;13.778;2023-05-07T10:43:00;5.80;;;4.50;;
18875;SDS011;9570;50.854;13.778;2023-05-07T10:45:28;5.57;;;5.07;;
18875;SDS011;9570;50.854;13.778;2023-05-07T10:48:10;5.27;;;4.80;;
18875;SDS011;9570;50.854;13.778;2023-05-07T10:50:37;7.63;;;5.00;;
18875;SDS011;9570;50.854;13.778;2023-05-07T10:55:42;5.83;;;5.23;;
18875;SDS011;9570;50.854;13.778;2023-05-07T10:58:28;5.90;;;5.30;;
18875;SDS011;9570;50.854;13.778;2023-05-07T11:00:57;5.80;;;4.93;;
18875;SDS011;9570;50.854;13.778;2023-05-07T11:03:24;6.73;;;4.97;;
18875;SDS011;9570;50.854;13.778;2023-05-07T11:06:09;6.87;;;4.73;;
18875;SDS011;9570;50.854;13.778;2023-05-07T11:11:17;4.60;;;4.07;;
18875;SDS011;9570;50.854;13.778;2023-05-07T11:13:45;5.33;;;4.83;;
18875;SDS011;9570;50.854;13.778;2023-05-07T11:16:17;5.10;;;4.60;;
18875;SDS011;9570;50.854;13.778;2023-05-07T11:18:54;5.30;;;4.80;;
18875;SDS011;9570;50.854;13.778;2023-05-07T11:24:02;5.60;;;5.03;;
18875;SDS011;9570;50.854;13.778;2023-05-07T11:26:30;5.63;;;5.07;;
18875;SDS011;9570;50.854;13.778;2023-05-07T11:29:08;6.00;;;4.90;;
18875;SDS011;9570;50.854;13.778;2023-05-07T11:31:36;5.40;;;4.90;;
18875;SDS011;9570;50.854;13.778;2023-05-07T11:34:02;5.00;;;4.50;;
18875;SDS011;9570;50.854;13.778;2023-05-07T11:36:30;5.43;;;4.90;;
18875;SDS011;9570;50.854;13.778;2023-05-07T11:38:57;5.30;;;4.80;;
18875;SDS011;9570;50.854;13.778;2023-05-07T11:41:23;5.97;;;5.37;;
18875;SDS011;9570;50.854;13.778;2023-05-07T11:43:58;5.47;;;4.97;;
18875;SDS011;9570;50.854;13.778;2023-05-07T11:46:25;6.63;;;4.90;;
18875;SDS011;9570;50.854;13.778;2023-05-07T11:48:51;6.03;;;5.20;;
18875;SDS011;9570;50.854;13.778;2023-05-07T11:51:21;5.50;;;5.00;;
18875;SDS011;9570;50.854;13.778;2023-05-07T11:53:48;5.07;;;4.67;;
18875;SDS011;9570;50.854;13.778;2023-05-07T11:56:14;5.53;;;4.60;;
18875;SDS011;9570;50.854;13.778;2023-05-07T11:58:42;5.57;;;5.07;;
18875;SDS011;9570;50.854;13.778;2023-05-07T12:01:09;6.07;;;5.47;;
18875;SDS011;9570;50.854;13.778;2023-05-07T12:03:35;6.00;;;5.23;;
18875;SDS011;9570;50.854;13.778;2023-05-07T12:06:06;6.43;;;5.13;;
18875;SDS011;9570;50.854;13.778;2023-05-07T12:08:32;6.00;;;5.40;;
18875;SDS011;9570;50.854;13.778;2023-05-07T12:10:58;6.80;;;5.50;;
18875;SDS011;9570;50.854;13.778;2023-05-07T12:13:24;5.70;;;5.20;;
18875;SDS011;9570;50.854;13.778;2023-05-07T12:15:51;5.67;;;5.10;;
18875;SDS011;9570;50.854;13.778;2023-05-07T12:18:17;6.00;;;5.40;;
18875;SDS011;9570;50.854;13.778;2023-05-07T12:20:43;5.50;;;5.00;;
18875;SDS011;9570;50.854;13.778;2023-05-07T12:23:10;5.60;;;5.10;;
18875;SDS011;9570;50.854;13.778;2023-05-07T12:25:36;5.27;;;4.77;;
18875;SDS011;9570;50.854;13.778;2023-05-07T12:28:03;5.30;;;4.73;;
18875;SDS011;9570;50.854;13.778;2023-05-07T12:30:32;5.33;;;4.77;;
18875;SDS011;9570;50.854;13.778;2023-05-07T12:33:03;5.90;;;5.40;;
18875;SDS011;9570;50.854;13.778;2023-05-07T12:35:32;6.00;;;5.40;;
18875;SDS011;9570;50.854;13.778;2023-05-07T12:38:08;6.13;;;5.53;;
18875;SDS011;9570;50.854;13.778;2023-05-07T12:40:36;6.43;;;5.80;;
18875;SDS011;9570;50.854;13.778;2023-05-07T12:43:03;6.50;;;5.90;;
18875;SDS011;9570;50.854;13.778;2023-05-07T12:45:28;6.07;;;5.50;;
18875;SDS011;9570;50.854;13.778;2023-05-07T12:47:54;5.73;;;5.23;;
18875;SDS011;9570;50.854;13.778;2023-05-07T12:50:19;7.23;;;5.90;;
18875;SDS011;9570;50.854;13.778;2023-05-07T12:52:46;6.70;;;6.10;;
18875;SDS011;9570;50.854;13.778;2023-05-07T12:55:16;6.57;;;5.80;;
18875;SDS011;9570;50.854;13.778;2023-05-07T12:57:42;6.87;;;6.20;;
18875;SDS011;9570;50.854;13.778;2023-05-07T13:00:10;6.13;;;5.53;;
18875;SDS011;9570;50.854;13.778;2023-05-07T13:02:40;7.53;;;6.83;;
18875;SDS011;9570;50.854;13.778;2023-05-07T13:05:06;6.40;;;5.57;;
18875;SDS011;9570;50.854;13.778;2023-05-07T13:07:33;7.47;;;6.43;;
18875;SDS011;9570;50.854;13.778;2023-05-07T13:09:58;6.37;;;5.77;;
18875;SDS011;9570;50.854;13.778;2023-05-07T13:12:24;5.90;;;5.30;;
18875;SDS011;9570;50.854;13.778;2023-05-07T13:14:49;7.20;;;5.70;;
18875;SDS011;9570;50.854;13.778;2023-05-07T13:17:15;6.50;;;5.80;;
18875;SDS011;9570;50.854;13.778;2023-05-07T13:19:40;6.43;;;5.70;;
18875;SDS011;9570;50.854;13.778;2023-05-07T13:22:06;6.77;;;5.93;;
18875;SDS011;9570;50.854;13.778;2023-05-07T13:24:31;6.40;;;5.80;;
18875;SDS011;9570;50.854;13.778;2023-05-07T13:26:56;6.37;;;5.67;;
18875;SDS011;9570;50.854;13.778;2023-05-07T13:29:22;8.53;;;5.07;;
18875;SDS011;9570;50.854;13.778;2023-05-07T13:31:54;6.13;;;5.53;;
18875;SDS011;9570;50.854;13.778;2023-05-07T13:34:21;6.13;;;5.53;;
18875;SDS011;9570;50.854;13.778;2023-05-07T13:36:46;6.40;;;5.80;;
18875;SDS011;9570;50.854;13.778;2023-05-07T13:39:12;7.87;;;6.47;;
18875;SDS011;9570;50.854;13.778;2023-05-07T13:41:37;6.63;;;5.57;;
18875;SDS011;9570;50.854;13.778;2023-05-07T13:44:03;6.77;;;6.07;;
18875;SDS011;9570;50.854;13.778;2023-05-07T13:46:29;7.37;;;6.20;;
18875;SDS011;9570;50.854;13.778;2023-05-07T13:48:54;6.37;;;5.77;;
18875;SDS011;9570;50.854;13.778;2023-05-07T13:51:20;7.77;;;5.73;;
18875;SDS011;9570;50.854;13.778;2023-05-07T13:53:46;6.03;;;5.53;;
18875;SDS011;9570;50.854;13.778;2023-05-07T13:56:12;6.57;;;5.97;;
18875;SDS011;9570;50.854;13.778;2023-05-07T13:58:37;6.60;;;6.00;;
18875;SDS011;9570;50.854;13.778;2023-05-07T14:01:03;7.47;;;6.07;;
18875;SDS011;9570;50.854;13.778;2023-05-07T14:03:28;7.13;;;6.20;;
18875;SDS011;9570;50.854;13.778;2023-05-07T14:05:56;5.83;;;5.20;;
18875;SDS011;9570;50.854;13.778;2023-05-07T14:08:22;6.70;;;6.00;;
18875;SDS011;9570;50.854;13.778;2023-05-07T14:10:48;6.20;;;5.60;;
18875;SDS011;9570;50.854;13.778;2023-05-07T14:13:13;8.70;;;5.87;;
18875;SDS011;9570;50.854;13.778;2023-05-07T14:15:39;6.43;;;5.50;;
18875;SDS011;9570;50.854;13.778;2023-05-07T14:18:05;6.43;;;5.83;;
18875;SDS011;9570;50.854;13.778;2023-05-07T14:20:30;5.80;;;5.20;;
18875;SDS011;9570;50.854;13.778;2023-05-07T14:22:56;6.03;;;5.43;;
18875;SDS011;9570;50.854;13.778;2023-05-07T14:25:21;5.27;;;4.77;;
18875;SDS011;9570;50.854;13.778;2023-05-07T14:27:47;5.37;;;4.87;;
18875;SDS011;9570;50.854;13.778;2023-05-07T14:30:12;4.90;;;4.50;;
18875;SDS011;9570;50.854;13.778;2023-05-07T14:32:38;6.03;;;5.10;;
18875;SDS011;9570;50.854;13.778;2023-05-07T14:35:03;5.87;;;4.70;;
18875;SDS011;9570;50.854;13.778;2023-05-07T14:37:29;6.40;;;4.93;;
18875;SDS011;9570;50.854;13.778;2023-05-07T14:39:55;4.93;;;4.43;;
18875;SDS011;9570;50.854;13.778;2023-05-07T14:42:20;5.13;;;4.60;;